sensor_id;sensor_type;location;lat;lon;timestamp;temperature;humidity
40053;DHT22;25758;48.200;16.338;2022-09-13T00:00:05;17.10;99.90
40053;DHT22;25758;48.200;16.338;2022-09-13T00:02:31;17.10;99.90
40053;DHT22;25758;48.200;16.338;2022-09-13T00:04:57;17.00;99.90
40053;DHT22;25758;48.200;16.338;2022-09-13T00:07:22;16.90;99.90
40053;DHT22;25758;48.200;16.338;2022-09-13T00:09:48;16.90;99.90
40053;DHT22;25758;48.200;16.338;2022-09-13T00:12:14;16.90;99.90
40053;DHT22;25758;48.200;16.338;2022-09-13T00:14:40;16.80;99.90
40053;DHT22;25758;48.200;16.338;2022-09-13T00:17:06;16.80;99.90
40053;DHT22;25758;48.200;16.338;2022-09-13T00:19:32;16.80;99.90
40053;DHT22;25758;48.200;16.338;2022-09-13T00:21:57;16.80;99.90
40053;DHT22;25758;48.200;16.338;2022-09-13T00:24:23;16.80;99.90
40053;DHT22;25758;48.200;16.338;2022-09-13T00:26:49;16.70;99.90
40053;DHT22;25758;48.200;16.338;2022-09-13T00:29:14;16.70;99.90
40053;DHT22;25758;48.200;16.338;2022-09-13T00:31:40;16.60;99.90
40053;DHT22;25758;48.200;16.338;2022-09-13T00:34:06;16.50;99.90
40053;DHT22;25758;48.200;16.338;2022-09-13T00:36:31;16.50;99.90
40053;DHT22;25758;48.200;16.338;2022-09-13T00:38:59;16.40;99.90
40053;DHT22;25758;48.200;16.338;2022-09-13T00:41:25;16.30;99.90
40053;DHT22;25758;48.200;16.338;2022-09-13T00:43:54;16.30;99.90
40053;DHT22;25758;48.200;16.338;2022-09-13T00:46:34;16.30;99.90
40053;DHT22;25758;48.200;16.338;2022-09-13T00:49:23;16.30;99.90
40053;DHT22;25758;48.200;16.338;2022-09-13T00:52:04;16.30;99.90
40053;DHT22;25758;48.200;16.338;2022-09-13T00:54:39;16.30;99.90
40053;DHT22;25758;48.200;16.338;2022-09-13T00:57:06;16.30;99.90
40053;DHT22;25758;48.200;16.338;2022-09-13T00:59:41;16.30;99.90
40053;DHT22;25758;48.200;16.338;2022-09-13T01:02:08;16.20;99.90
40053;DHT22;25758;48.200;16.338;2022-09-13T01:04:35;16.20;99.90
40053;DHT22;25758;48.200;16.338;2022-09-13T01:07:05;16.20;99.90
40053;DHT22;25758;48.200;16.338;2022-09-13T01:09:35;16.10;99.90
40053;DHT22;25758;48.200;16.338;2022-09-13T01:13:10;16.10;99.90
40053;DHT22;25758;48.200;16.338;2022-09-13T01:15:06;16.20;99.90
40053;DHT22;25758;48.200;16.338;2022-09-13T01:17:33;16.20;99.90
40053;DHT22;25758;48.200;16.338;2022-09-13T01:20:00;16.20;99.90
40053;DHT22;25758;48.200;16.338;2022-09-13T01:23:16;16.30;99.90
40053;DHT22;25758;48.200;16.338;2022-09-13T01:31:39;16.20;99.90
40053;DHT22;25758;48.200;16.338;2022-09-13T01:34:26;16.20;99.90
40053;DHT22;25758;48.200;16.338;2022-09-13T01:45:47;16.30;99.90
40053;DHT22;25758;48.200;16.338;2022-09-13T01:48:24;16.30;99.90
40053;DHT22;25758;48.200;16.338;2022-09-13T01:54:30;16.30;99.90
40053;DHT22;25758;48.200;16.338;2022-09-13T01:56:46;16.30;99.90
40053;DHT22;25758;48.200;16.338;2022-09-13T01:59:20;16.30;99.90
40053;DHT22;25758;48.200;16.338;2022-09-13T02:04:23;16.30;99.90
40053;DHT22;25758;48.200;16.338;2022-09-13T02:07:04;16.30;99.90
40053;DHT22;25758;48.200;16.338;2022-09-13T02:09:35;16.30;99.90
40053;DHT22;25758;48.200;16.338;2022-09-13T02:12:08;16.30;99.90
40053;DHT22;25758;48.200;16.338;2022-09-13T02:14:37;16.30;99.90
40053;DHT22;25758;48.200;16.338;2022-09-13T02:17:16;16.30;99.90
40053;DHT22;25758;48.200;16.338;2022-09-13T02:19:50;16.30;99.90
40053;DHT22;25758;48.200;16.338;2022-09-13T02:22:22;16.20;99.90
40053;DHT22;25758;48.200;16.338;2022-09-13T02:24:54;16.20;99.90
40053;DHT22;25758;48.200;16.338;2022-09-13T02:27:26;16.00;99.90
40053;DHT22;25758;48.200;16.338;2022-09-13T02:30:00;15.90;99.90
40053;DHT22;25758;48.200;16.338;2022-09-13T02:32:37;15.80;99.90
40053;DHT22;25758;48.200;16.338;2022-09-13T02:37:41;15.60;99.90
40053;DHT22;25758;48.200;16.338;2022-09-13T02:40:12;15.60;99.90
40053;DHT22;25758;48.200;16.338;2022-09-13T02:42:46;15.50;99.90
40053;DHT22;25758;48.200;16.338;2022-09-13T02:45:14;15.50;99.90
40053;DHT22;25758;48.200;16.338;2022-09-13T02:53:18;15.40;99.90
40053;DHT22;25758;48.200;16.338;2022-09-13T02:58:42;15.30;99.90
40053;DHT22;25758;48.200;16.338;2022-09-13T03:01:09;15.30;99.90
40053;DHT22;25758;48.200;16.338;2022-09-13T03:03:35;15.30;99.90
40053;DHT22;25758;48.200;16.338;2022-09-13T03:06:00;15.30;99.90
40053;DHT22;25758;48.200;16.338;2022-09-13T03:08:27;15.30;99.90
40053;DHT22;25758;48.200;16.338;2022-09-13T03:19:47;15.30;99.90
40053;DHT22;25758;48.200;16.338;2022-09-13T03:22:34;15.30;99.90
40053;DHT22;25758;48.200;16.338;2022-09-13T03:30:50;15.40;99.90
40053;DHT22;25758;48.200;16.338;2022-09-13T03:41:37;15.60;99.90
40053;DHT22;25758;48.200;16.338;2022-09-13T03:44:07;15.60;99.90
40053;DHT22;25758;48.200;16.338;2022-09-13T03:46:41;15.60;99.90
40053;DHT22;25758;48.200;16.338;2022-09-13T03:49:11;15.60;99.90
40053;DHT22;25758;48.200;16.338;2022-09-13T03:51:37;15.60;99.90
40053;DHT22;25758;48.200;16.338;2022-09-13T03:54:08;15.70;99.90
40053;DHT22;25758;48.200;16.338;2022-09-13T03:56:35;15.70;99.90
40053;DHT22;25758;48.200;16.338;2022-09-13T03:59:01;15.70;99.90
40053;DHT22;25758;48.200;16.338;2022-09-13T04:01:26;15.70;99.90
40053;DHT22;25758;48.200;16.338;2022-09-13T04:03:52;15.60;99.90
40053;DHT22;25758;48.200;16.338;2022-09-13T04:06:18;15.60;99.90
40053;DHT22;25758;48.200;16.338;2022-09-13T04:08:44;15.60;99.90
40053;DHT22;25758;48.200;16.338;2022-09-13T04:11:09;15.60;99.90
40053;DHT22;25758;48.200;16.338;2022-09-13T04:13:36;15.60;99.90
40053;DHT22;25758;48.200;16.338;2022-09-13T04:16:03;15.60;99.90
40053;DHT22;25758;48.200;16.338;2022-09-13T04:18:29;15.60;99.90
40053;DHT22;25758;48.200;16.338;2022-09-13T04:20:57;15.60;99.90
40053;DHT22;25758;48.200;16.338;2022-09-13T04:23:23;15.60;99.90
40053;DHT22;25758;48.200;16.338;2022-09-13T04:25:49;15.60;99.90
40053;DHT22;25758;48.200;16.338;2022-09-13T04:28:18;15.60;99.90
40053;DHT22;25758;48.200;16.338;2022-09-13T04:30:46;15.60;99.90
40053;DHT22;25758;48.200;16.338;2022-09-13T04:33:13;15.60;99.90
40053;DHT22;25758;48.200;16.338;2022-09-13T04:35:38;15.60;99.90
40053;DHT22;25758;48.200;16.338;2022-09-13T04:38:05;15.60;99.90
40053;DHT22;25758;48.200;16.338;2022-09-13T04:40:31;15.60;99.90
40053;DHT22;25758;48.200;16.338;2022-09-13T04:42:57;15.60;99.90
40053;DHT22;25758;48.200;16.338;2022-09-13T04:45:22;15.60;99.90
40053;DHT22;25758;48.200;16.338;2022-09-13T04:47:52;15.60;99.90
40053;DHT22;25758;48.200;16.338;2022-09-13T04:50:19;15.60;99.90
40053;DHT22;25758;48.200;16.338;2022-09-13T04:52:45;15.60;99.90
40053;DHT22;25758;48.200;16.338;2022-09-13T04:55:11;15.40;99.90
40053;DHT22;25758;48.200;16.338;2022-09-13T04:57:37;15.30;99.90
40053;DHT22;25758;48.200;16.338;2022-09-13T05:00:03;15.20;99.90
40053;DHT22;25758;48.200;16.338;2022-09-13T05:02:30;15.20;99.90
40053;DHT22;25758;48.200;16.338;2022-09-13T05:04:55;15.10;99.90
40053;DHT22;25758;48.200;16.338;2022-09-13T05:07:21;15.00;99.90
40053;DHT22;25758;48.200;16.338;2022-09-13T05:09:46;15.00;99.90
40053;DHT22;25758;48.200;16.338;2022-09-13T05:12:12;15.00;99.90
40053;DHT22;25758;48.200;16.338;2022-09-13T05:14:38;15.10;99.90
40053;DHT22;25758;48.200;16.338;2022-09-13T05:17:04;15.00;99.90
40053;DHT22;25758;48.200;16.338;2022-09-13T05:19:30;15.00;99.90
40053;DHT22;25758;48.200;16.338;2022-09-13T05:21:55;15.00;99.90
40053;DHT22;25758;48.200;16.338;2022-09-13T05:24:21;14.90;99.90
40053;DHT22;25758;48.200;16.338;2022-09-13T05:26:46;15.00;99.90
40053;DHT22;25758;48.200;16.338;2022-09-13T05:29:12;15.00;99.90
40053;DHT22;25758;48.200;16.338;2022-09-13T05:31:39;15.00;99.90
40053;DHT22;25758;48.200;16.338;2022-09-13T05:34:07;15.00;99.90
40053;DHT22;25758;48.200;16.338;2022-09-13T05:36:35;15.00;99.90
40053;DHT22;25758;48.200;16.338;2022-09-13T05:39:02;15.00;99.90
40053;DHT22;25758;48.200;16.338;2022-09-13T05:41:27;15.00;99.90
40053;DHT22;25758;48.200;16.338;2022-09-13T05:43:53;15.00;99.90
40053;DHT22;25758;48.200;16.338;2022-09-13T05:46:20;15.00;99.90
40053;DHT22;25758;48.200;16.338;2022-09-13T05:48:46;15.00;99.90
40053;DHT22;25758;48.200;16.338;2022-09-13T05:51:17;15.00;99.90
40053;DHT22;25758;48.200;16.338;2022-09-13T05:53:45;14.90;99.90
40053;DHT22;25758;48.200;16.338;2022-09-13T05:56:13;14.90;99.90
40053;DHT22;25758;48.200;16.338;2022-09-13T05:58:44;15.00;99.90
40053;DHT22;25758;48.200;16.338;2022-09-13T06:01:11;15.00;99.90
40053;DHT22;25758;48.200;16.338;2022-09-13T06:03:37;14.90;99.90
40053;DHT22;25758;48.200;16.338;2022-09-13T06:06:04;15.00;99.90
40053;DHT22;25758;48.200;16.338;2022-09-13T06:08:31;15.10;99.90
40053;DHT22;25758;48.200;16.338;2022-09-13T06:11:00;15.10;99.90
40053;DHT22;25758;48.200;16.338;2022-09-13T06:13:27;15.20;99.90
40053;DHT22;25758;48.200;16.338;2022-09-13T06:15:54;15.20;99.90
40053;DHT22;25758;48.200;16.338;2022-09-13T06:18:20;15.30;99.90
40053;DHT22;25758;48.200;16.338;2022-09-13T06:20:46;15.30;99.90
40053;DHT22;25758;48.200;16.338;2022-09-13T06:23:13;15.30;99.90
40053;DHT22;25758;48.200;16.338;2022-09-13T06:25:39;15.40;99.90
40053;DHT22;25758;48.200;16.338;2022-09-13T06:28:05;15.40;99.90
40053;DHT22;25758;48.200;16.338;2022-09-13T06:30:49;15.40;99.90
40053;DHT22;25758;48.200;16.338;2022-09-13T06:33:15;15.50;99.90
40053;DHT22;25758;48.200;16.338;2022-09-13T06:35:40;15.50;99.90
40053;DHT22;25758;48.200;16.338;2022-09-13T06:38:06;15.50;99.90
40053;DHT22;25758;48.200;16.338;2022-09-13T06:40:32;15.50;99.90
40053;DHT22;25758;48.200;16.338;2022-09-13T06:42:57;15.60;99.90
40053;DHT22;25758;48.200;16.338;2022-09-13T06:45:23;15.70;99.90
40053;DHT22;25758;48.200;16.338;2022-09-13T06:47:48;15.70;99.90
40053;DHT22;25758;48.200;16.338;2022-09-13T06:50:17;15.70;99.90
40053;DHT22;25758;48.200;16.338;2022-09-13T06:52:42;15.80;99.90
40053;DHT22;25758;48.200;16.338;2022-09-13T06:55:08;15.80;99.90
40053;DHT22;25758;48.200;16.338;2022-09-13T06:57:34;15.90;99.90
40053;DHT22;25758;48.200;16.338;2022-09-13T06:59:59;16.00;99.90
40053;DHT22;25758;48.200;16.338;2022-09-13T07:02:25;16.00;99.90
40053;DHT22;25758;48.200;16.338;2022-09-13T07:04:51;16.10;99.90
40053;DHT22;25758;48.200;16.338;2022-09-13T07:07:16;16.10;99.90
40053;DHT22;25758;48.200;16.338;2022-09-13T07:09:43;16.10;99.90
40053;DHT22;25758;48.200;16.338;2022-09-13T07:12:09;16.20;99.90
40053;DHT22;25758;48.200;16.338;2022-09-13T07:14:34;16.20;99.90
40053;DHT22;25758;48.200;16.338;2022-09-13T07:17:00;16.30;99.90
40053;DHT22;25758;48.200;16.338;2022-09-13T07:19:27;16.30;99.90
40053;DHT22;25758;48.200;16.338;2022-09-13T07:21:54;16.40;99.90
40053;DHT22;25758;48.200;16.338;2022-09-13T07:24:20;16.40;99.90
40053;DHT22;25758;48.200;16.338;2022-09-13T07:26:47;16.50;99.90
40053;DHT22;25758;48.200;16.338;2022-09-13T07:29:18;16.50;99.90
40053;DHT22;25758;48.200;16.338;2022-09-13T07:31:46;16.60;99.90
40053;DHT22;25758;48.200;16.338;2022-09-13T07:34:17;16.60;99.90
40053;DHT22;25758;48.200;16.338;2022-09-13T07:36:45;16.60;99.90
40053;DHT22;25758;48.200;16.338;2022-09-13T07:39:11;16.60;99.90
40053;DHT22;25758;48.200;16.338;2022-09-13T07:41:37;16.60;99.90
40053;DHT22;25758;48.200;16.338;2022-09-13T07:44:03;16.60;99.90
40053;DHT22;25758;48.200;16.338;2022-09-13T07:46:31;16.70;99.90
40053;DHT22;25758;48.200;16.338;2022-09-13T07:48:59;16.70;99.90
40053;DHT22;25758;48.200;16.338;2022-09-13T07:51:36;16.70;99.90
40053;DHT22;25758;48.200;16.338;2022-09-13T07:54:05;16.80;99.90
40053;DHT22;25758;48.200;16.338;2022-09-13T07:56:33;16.80;99.90
40053;DHT22;25758;48.200;16.338;2022-09-13T07:59:00;16.90;99.90
40053;DHT22;25758;48.200;16.338;2022-09-13T08:01:39;17.10;99.90
40053;DHT22;25758;48.200;16.338;2022-09-13T08:04:17;17.40;99.90
40053;DHT22;25758;48.200;16.338;2022-09-13T08:06:43;17.70;99.90
40053;DHT22;25758;48.200;16.338;2022-09-13T08:09:10;18.10;99.90
40053;DHT22;25758;48.200;16.338;2022-09-13T08:14:08;18.90;98.80
40053;DHT22;25758;48.200;16.338;2022-09-13T08:16:35;19.20;98.40
40053;DHT22;25758;48.200;16.338;2022-09-13T08:19:03;19.60;97.70
40053;DHT22;25758;48.200;16.338;2022-09-13T08:21:36;19.90;96.60
40053;DHT22;25758;48.200;16.338;2022-09-13T08:24:03;19.90;96.30
40053;DHT22;25758;48.200;16.338;2022-09-13T08:26:31;20.10;96.10
40053;DHT22;25758;48.200;16.338;2022-09-13T08:28:58;20.30;96.30
40053;DHT22;25758;48.200;16.338;2022-09-13T08:31:25;20.40;95.80
40053;DHT22;25758;48.200;16.338;2022-09-13T08:33:51;20.50;95.10
40053;DHT22;25758;48.200;16.338;2022-09-13T08:36:18;20.60;95.10
40053;DHT22;25758;48.200;16.338;2022-09-13T08:38:49;20.70;95.10
40053;DHT22;25758;48.200;16.338;2022-09-13T08:50:30;20.60;95.30
40053;DHT22;25758;48.200;16.338;2022-09-13T09:00:40;21.20;93.90
40053;DHT22;25758;48.200;16.338;2022-09-13T09:05:49;21.10;94.30
40053;DHT22;25758;48.200;16.338;2022-09-13T09:10:54;21.00;94.10
40053;DHT22;25758;48.200;16.338;2022-09-13T09:13:30;21.20;94.20
40053;DHT22;25758;48.200;16.338;2022-09-13T09:18:54;21.60;94.30
40053;DHT22;25758;48.200;16.338;2022-09-13T09:21:21;21.70;93.90
40053;DHT22;25758;48.200;16.338;2022-09-13T09:23:54;21.90;94.00
40053;DHT22;25758;48.200;16.338;2022-09-13T09:26:22;22.20;92.90
40053;DHT22;25758;48.200;16.338;2022-09-13T09:28:59;22.20;93.00
40053;DHT22;25758;48.200;16.338;2022-09-13T09:36:42;22.50;92.50
40053;DHT22;25758;48.200;16.338;2022-09-13T09:39:11;22.50;92.40
40053;DHT22;25758;48.200;16.338;2022-09-13T09:41:37;22.70;92.40
40053;DHT22;25758;48.200;16.338;2022-09-13T09:44:16;22.60;91.90
40053;DHT22;25758;48.200;16.338;2022-09-13T09:46:44;22.80;92.60
40053;DHT22;25758;48.200;16.338;2022-09-13T09:49:44;23.00;91.60
40053;DHT22;25758;48.200;16.338;2022-09-13T09:55:31;23.20;90.90
40053;DHT22;25758;48.200;16.338;2022-09-13T09:58:01;23.10;90.90
40053;DHT22;25758;48.200;16.338;2022-09-13T10:00:31;23.00;91.00
40053;DHT22;25758;48.200;16.338;2022-09-13T10:02:59;22.90;91.10
40053;DHT22;25758;48.200;16.338;2022-09-13T10:05:26;23.00;91.20
40053;DHT22;25758;48.200;16.338;2022-09-13T10:08:00;23.30;91.00
40053;DHT22;25758;48.200;16.338;2022-09-13T10:10:43;23.30;90.30
40053;DHT22;25758;48.200;16.338;2022-09-13T10:13:15;23.20;90.20
40053;DHT22;25758;48.200;16.338;2022-09-13T10:18:21;23.90;90.20
40053;DHT22;25758;48.200;16.338;2022-09-13T10:21:06;24.20;89.60
40053;DHT22;25758;48.200;16.338;2022-09-13T10:23:35;24.60;88.50
40053;DHT22;25758;48.200;16.338;2022-09-13T10:28:34;25.10;86.00
40053;DHT22;25758;48.200;16.338;2022-09-13T10:31:06;25.20;86.20
40053;DHT22;25758;48.200;16.338;2022-09-13T10:36:06;25.50;85.80
40053;DHT22;25758;48.200;16.338;2022-09-13T10:38:43;25.70;84.00
40053;DHT22;25758;48.200;16.338;2022-09-13T10:41:22;26.00;83.90
40053;DHT22;25758;48.200;16.338;2022-09-13T10:43:59;26.20;84.20
40053;DHT22;25758;48.200;16.338;2022-09-13T10:46:28;26.50;82.70
40053;DHT22;25758;48.200;16.338;2022-09-13T10:48:54;26.70;82.20
40053;DHT22;25758;48.200;16.338;2022-09-13T10:56:40;27.00;80.70
40053;DHT22;25758;48.200;16.338;2022-09-13T10:59:27;27.20;79.30
40053;DHT22;25758;48.200;16.338;2022-09-13T11:02:13;27.40;79.10
40053;DHT22;25758;48.200;16.338;2022-09-13T11:15:52;28.10;75.10
40053;DHT22;25758;48.200;16.338;2022-09-13T11:24:09;27.60;76.30
40053;DHT22;25758;48.200;16.338;2022-09-13T11:35:44;27.90;74.30
40053;DHT22;25758;48.200;16.338;2022-09-13T11:38:34;27.70;74.20
40053;DHT22;25758;48.200;16.338;2022-09-13T11:44:35;27.80;74.20
40053;DHT22;25758;48.200;16.338;2022-09-13T11:47:13;27.80;74.40
40053;DHT22;25758;48.200;16.338;2022-09-13T11:57:52;27.60;73.70
40053;DHT22;25758;48.200;16.338;2022-09-13T12:00:26;27.40;74.30
40053;DHT22;25758;48.200;16.338;2022-09-13T12:05:59;27.30;73.60
40053;DHT22;25758;48.200;16.338;2022-09-13T12:08:35;27.30;73.40
40053;DHT22;25758;48.200;16.338;2022-09-13T12:11:10;27.30;72.80
40053;DHT22;25758;48.200;16.338;2022-09-13T12:13:42;27.10;74.00
40053;DHT22;25758;48.200;16.338;2022-09-13T12:16:15;27.10;74.80
40053;DHT22;25758;48.200;16.338;2022-09-13T12:18:50;27.10;74.80
40053;DHT22;25758;48.200;16.338;2022-09-13T12:21:23;27.10;73.90
40053;DHT22;25758;48.200;16.338;2022-09-13T12:29:30;26.50;75.40
40053;DHT22;25758;48.200;16.338;2022-09-13T12:32:00;26.40;74.70
40053;DHT22;25758;48.200;16.338;2022-09-13T12:38:16;26.20;75.20
40053;DHT22;25758;48.200;16.338;2022-09-13T12:54:20;25.60;75.70
40053;DHT22;25758;48.200;16.338;2022-09-13T12:57:20;25.60;75.80
40053;DHT22;25758;48.200;16.338;2022-09-13T13:02:35;25.50;76.20
40053;DHT22;25758;48.200;16.338;2022-09-13T13:05:46;25.50;75.70
40053;DHT22;25758;48.200;16.338;2022-09-13T13:07:55;25.50;76.00
40053;DHT22;25758;48.200;16.338;2022-09-13T13:10:30;25.30;75.30
40053;DHT22;25758;48.200;16.338;2022-09-13T13:13:12;25.30;76.20
40053;DHT22;25758;48.200;16.338;2022-09-13T13:18:28;25.40;76.90
40053;DHT22;25758;48.200;16.338;2022-09-13T13:23:30;25.40;76.90
40053;DHT22;25758;48.200;16.338;2022-09-13T13:31:32;25.10;75.60
40053;DHT22;25758;48.200;16.338;2022-09-13T13:37:25;25.10;76.10
40053;DHT22;25758;48.200;16.338;2022-09-13T13:40:25;25.10;75.90
40053;DHT22;25758;48.200;16.338;2022-09-13T13:43:14;25.20;72.80
40053;DHT22;25758;48.200;16.338;2022-09-13T13:45:56;25.20;73.80
40053;DHT22;25758;48.200;16.338;2022-09-13T13:48:37;25.20;73.10
40053;DHT22;25758;48.200;16.338;2022-09-13T13:51:17;25.20;70.80
40053;DHT22;25758;48.200;16.338;2022-09-13T13:53:51;25.20;71.90
40053;DHT22;25758;48.200;16.338;2022-09-13T13:56:44;25.20;72.20
40053;DHT22;25758;48.200;16.338;2022-09-13T13:59:12;25.20;72.80
40053;DHT22;25758;48.200;16.338;2022-09-13T14:01:46;25.10;73.10
40053;DHT22;25758;48.200;16.338;2022-09-13T14:04:40;25.20;73.40
40053;DHT22;25758;48.200;16.338;2022-09-13T14:07:17;25.20;74.70
40053;DHT22;25758;48.200;16.338;2022-09-13T14:21:29;25.20;74.30
40053;DHT22;25758;48.200;16.338;2022-09-13T14:24:27;25.20;75.00
40053;DHT22;25758;48.200;16.338;2022-09-13T14:26:57;25.20;74.80
40053;DHT22;25758;48.200;16.338;2022-09-13T14:29:24;25.30;75.20
40053;DHT22;25758;48.200;16.338;2022-09-13T14:32:00;25.40;75.70
40053;DHT22;25758;48.200;16.338;2022-09-13T14:34:30;25.30;76.10
40053;DHT22;25758;48.200;16.338;2022-09-13T14:36:59;25.30;75.60
40053;DHT22;25758;48.200;16.338;2022-09-13T14:39:26;25.30;74.60
40053;DHT22;25758;48.200;16.338;2022-09-13T14:42:11;25.20;74.40
40053;DHT22;25758;48.200;16.338;2022-09-13T14:44:46;25.10;75.20
40053;DHT22;25758;48.200;16.338;2022-09-13T14:47:53;25.10;74.50
40053;DHT22;25758;48.200;16.338;2022-09-13T14:50:24;25.20;74.80
40053;DHT22;25758;48.200;16.338;2022-09-13T14:52:55;25.10;74.50
40053;DHT22;25758;48.200;16.338;2022-09-13T14:55:26;25.10;74.10
40053;DHT22;25758;48.200;16.338;2022-09-13T14:57:57;25.10;74.30
40053;DHT22;25758;48.200;16.338;2022-09-13T15:00:26;25.00;74.40
40053;DHT22;25758;48.200;16.338;2022-09-13T15:02:59;24.90;75.40
40053;DHT22;25758;48.200;16.338;2022-09-13T15:05:31;24.70;76.20
40053;DHT22;25758;48.200;16.338;2022-09-13T15:07:58;24.70;76.60
40053;DHT22;25758;48.200;16.338;2022-09-13T15:10:26;24.60;77.10
40053;DHT22;25758;48.200;16.338;2022-09-13T15:18:28;24.40;78.20
40053;DHT22;25758;48.200;16.338;2022-09-13T15:21:14;24.30;78.40
40053;DHT22;25758;48.200;16.338;2022-09-13T15:23:42;24.30;78.90
40053;DHT22;25758;48.200;16.338;2022-09-13T15:26:23;24.10;79.10
40053;DHT22;25758;48.200;16.338;2022-09-13T15:28:59;24.10;79.40
40053;DHT22;25758;48.200;16.338;2022-09-13T15:31:32;24.00;79.60
40053;DHT22;25758;48.200;16.338;2022-09-13T15:37:09;23.80;80.10
40053;DHT22;25758;48.200;16.338;2022-09-13T15:40:00;23.80;80.40
40053;DHT22;25758;48.200;16.338;2022-09-13T15:42:26;23.70;80.60
40053;DHT22;25758;48.200;16.338;2022-09-13T15:44:52;23.70;80.70
40053;DHT22;25758;48.200;16.338;2022-09-13T15:47:17;23.70;80.40
40053;DHT22;25758;48.200;16.338;2022-09-13T15:49:48;23.60;80.30
40053;DHT22;25758;48.200;16.338;2022-09-13T15:52:16;23.60;80.70
40053;DHT22;25758;48.200;16.338;2022-09-13T15:54:42;23.50;80.60
40053;DHT22;25758;48.200;16.338;2022-09-13T15:57:20;23.50;81.00
40053;DHT22;25758;48.200;16.338;2022-09-13T15:59:46;23.50;81.10
40053;DHT22;25758;48.200;16.338;2022-09-13T16:02:18;23.40;81.00
40053;DHT22;25758;48.200;16.338;2022-09-13T16:04:44;23.40;81.00
40053;DHT22;25758;48.200;16.338;2022-09-13T16:07:09;23.40;81.30
40053;DHT22;25758;48.200;16.338;2022-09-13T16:09:38;23.20;81.00
40053;DHT22;25758;48.200;16.338;2022-09-13T16:12:04;23.20;81.20
40053;DHT22;25758;48.200;16.338;2022-09-13T16:14:29;23.20;81.00
40053;DHT22;25758;48.200;16.338;2022-09-13T16:16:55;23.20;81.20
40053;DHT22;25758;48.200;16.338;2022-09-13T16:19:22;23.20;81.40
40053;DHT22;25758;48.200;16.338;2022-09-13T16:21:49;23.10;81.70
40053;DHT22;25758;48.200;16.338;2022-09-13T16:24:15;23.10;81.70
40053;DHT22;25758;48.200;16.338;2022-09-13T16:26:42;23.00;81.70
40053;DHT22;25758;48.200;16.338;2022-09-13T16:29:10;23.00;81.90
40053;DHT22;25758;48.200;16.338;2022-09-13T16:31:35;23.00;81.80
40053;DHT22;25758;48.200;16.338;2022-09-13T16:34:01;23.00;81.80
40053;DHT22;25758;48.200;16.338;2022-09-13T16:36:27;22.90;81.80
40053;DHT22;25758;48.200;16.338;2022-09-13T16:38:54;22.90;81.80
40053;DHT22;25758;48.200;16.338;2022-09-13T16:41:20;22.90;81.80
40053;DHT22;25758;48.200;16.338;2022-09-13T16:43:47;22.90;81.90
40053;DHT22;25758;48.200;16.338;2022-09-13T16:46:13;22.90;81.90
40053;DHT22;25758;48.200;16.338;2022-09-13T16:48:39;22.80;81.90
40053;DHT22;25758;48.200;16.338;2022-09-13T16:51:08;22.80;81.70
40053;DHT22;25758;48.200;16.338;2022-09-13T16:53:35;22.80;81.70
40053;DHT22;25758;48.200;16.338;2022-09-13T16:56:14;22.80;81.70
40053;DHT22;25758;48.200;16.338;2022-09-13T16:58:43;22.80;81.20
40053;DHT22;25758;48.200;16.338;2022-09-13T17:01:12;22.80;81.70
40053;DHT22;25758;48.200;16.338;2022-09-13T17:03:39;22.80;81.60
40053;DHT22;25758;48.200;16.338;2022-09-13T17:06:10;22.70;81.60
40053;DHT22;25758;48.200;16.338;2022-09-13T17:08:38;22.70;81.50
40053;DHT22;25758;48.200;16.338;2022-09-13T17:11:05;22.70;81.50
40053;DHT22;25758;48.200;16.338;2022-09-13T17:13:31;22.70;81.60
40053;DHT22;25758;48.200;16.338;2022-09-13T17:15:57;22.70;81.80
40053;DHT22;25758;48.200;16.338;2022-09-13T17:18:23;22.60;81.90
40053;DHT22;25758;48.200;16.338;2022-09-13T17:20:50;22.60;82.20
40053;DHT22;25758;48.200;16.338;2022-09-13T17:23:16;22.60;82.70
40053;DHT22;25758;48.200;16.338;2022-09-13T17:25:46;22.60;82.80
40053;DHT22;25758;48.200;16.338;2022-09-13T17:28:14;22.50;83.10
40053;DHT22;25758;48.200;16.338;2022-09-13T17:30:40;22.50;83.30
40053;DHT22;25758;48.200;16.338;2022-09-13T17:33:06;22.50;83.50
40053;DHT22;25758;48.200;16.338;2022-09-13T17:35:33;22.40;83.50
40053;DHT22;25758;48.200;16.338;2022-09-13T17:37:59;22.40;83.90
40053;DHT22;25758;48.200;16.338;2022-09-13T17:40:26;22.40;84.10
40053;DHT22;25758;48.200;16.338;2022-09-13T17:42:52;22.40;84.20
40053;DHT22;25758;48.200;16.338;2022-09-13T17:45:19;22.30;84.50
40053;DHT22;25758;48.200;16.338;2022-09-13T17:47:45;22.30;84.60
40053;DHT22;25758;48.200;16.338;2022-09-13T17:50:11;22.30;85.00
40053;DHT22;25758;48.200;16.338;2022-09-13T17:52:37;22.30;85.10
40053;DHT22;25758;48.200;16.338;2022-09-13T17:55:03;22.30;85.40
40053;DHT22;25758;48.200;16.338;2022-09-13T17:57:29;22.20;85.50
40053;DHT22;25758;48.200;16.338;2022-09-13T17:59:54;22.20;85.80
40053;DHT22;25758;48.200;16.338;2022-09-13T18:02:21;22.20;86.10
40053;DHT22;25758;48.200;16.338;2022-09-13T18:04:48;22.20;86.20
40053;DHT22;25758;48.200;16.338;2022-09-13T18:07:15;22.10;86.50
40053;DHT22;25758;48.200;16.338;2022-09-13T18:09:41;22.10;86.70
40053;DHT22;25758;48.200;16.338;2022-09-13T18:12:08;22.10;87.00
40053;DHT22;25758;48.200;16.338;2022-09-13T18:14:34;22.10;87.30
40053;DHT22;25758;48.200;16.338;2022-09-13T18:17:00;22.10;87.50
40053;DHT22;25758;48.200;16.338;2022-09-13T18:19:25;22.10;87.70
40053;DHT22;25758;48.200;16.338;2022-09-13T18:21:52;22.00;87.90
40053;DHT22;25758;48.200;16.338;2022-09-13T18:24:18;22.00;87.90
40053;DHT22;25758;48.200;16.338;2022-09-13T18:26:44;22.00;88.20
40053;DHT22;25758;48.200;16.338;2022-09-13T18:29:12;22.00;88.50
40053;DHT22;25758;48.200;16.338;2022-09-13T18:31:39;21.90;88.60
40053;DHT22;25758;48.200;16.338;2022-09-13T18:34:08;21.90;88.80
40053;DHT22;25758;48.200;16.338;2022-09-13T18:36:35;21.90;89.00
40053;DHT22;25758;48.200;16.338;2022-09-13T18:39:02;21.90;89.20
40053;DHT22;25758;48.200;16.338;2022-09-13T18:41:37;21.80;89.50
40053;DHT22;25758;48.200;16.338;2022-09-13T18:44:05;21.90;89.70
40053;DHT22;25758;48.200;16.338;2022-09-13T18:46:32;21.90;90.10
40053;DHT22;25758;48.200;16.338;2022-09-13T18:48:58;21.80;90.50
40053;DHT22;25758;48.200;16.338;2022-09-13T18:51:30;21.80;90.80
40053;DHT22;25758;48.200;16.338;2022-09-13T18:53:57;21.80;90.70
40053;DHT22;25758;48.200;16.338;2022-09-13T18:56:24;21.80;91.00